Terminal Aerodrome Forecast
Issued by NWS Billings, MT

Home | Current Version | Previous Version | Text Only | Print | Product List | Glossary On
Versions: 1 2 3 4 5 6 7 8 9 10 11 12 13 14 15 16 17 18 19 20
000
FTUS45 KBYZ 290530
TAFSHR
TAF
KSHR 290530Z 2906/3006 31023KT 2SM -SN BR OVC020
      TEMPO 2906/2910 31020G27KT 1SM -SN BLSN OVC015
     FM291000 30011KT 4SM -SN SCT006 BKN010
     FM291700 33010KT P6SM SCT008 BKN030=

USA.gov is the U.S. government's official web portal to all federal, state and local government web resources and services.